Time;durP1;ratioP1;P1;durP2;ratioP2;P2;SDS_P1;SDS_P2;PMS_P1;PMS_P2;Temp;Humidity;BMP_temperature;BMP_pressure;BME280_temperature;BME280_humidity;BME280_pressure;Samples;Min_cycle;Max_cycle;Signal;HPM_P1;HPM_P2
2021/12/09 00:01:58;;;;;;;21.60;17.03;;;3.10;99.90;;;3.75;100.00;96553.66;5225574;28;20204;-64
2021/12/09 00:04:32;;;;;;;19.20;16.73;;;3.10;99.90;;;3.79;100.00;96558.16;5231611;28;20222;-64
2021/12/09 00:07:05;;;;;;;22.87;16.27;;;3.00;99.90;;;3.82;100.00;96563.38;5230803;28;20311;-64
2021/12/09 00:09:39;;;;;;;19.67;16.27;;;3.00;99.90;;;3.81;100.00;96559.13;5225944;28;20197;-64
2021/12/09 00:12:12;;;;;;;24.00;16.93;;;3.00;99.90;;;3.84;100.00;96557.66;5226234;28;20239;-64
2021/12/09 00:14:45;;;;;;;20.77;17.37;;;3.00;99.90;;;3.85;100.00;96561.03;5225013;28;20308;-64
2021/12/09 00:17:19;;;;;;;20.93;17.43;;;3.00;99.90;;;3.73;100.00;96560.31;5226885;28;20223;-64
2021/12/09 00:19:52;;;;;;;25.53;18.70;;;2.90;99.90;;;3.71;100.00;96554.28;5226270;28;20291;-64
2021/12/09 00:22:25;;;;;;;23.63;18.17;;;2.90;99.90;;;3.69;100.00;96564.28;5228451;28;20227;-64
2021/12/09 00:25:00;;;;;;;23.63;18.33;;;2.90;99.90;;;3.71;100.00;96560.19;5239360;28;20657;-62
2021/12/09 00:27:33;;;;;;;22.17;17.27;;;2.90;99.90;;;3.71;100.00;96564.38;5245491;28;20283;-63
2021/12/09 00:30:08;;;;;;;19.07;15.00;;;2.90;99.90;;;3.72;100.00;96563.59;5226002;28;20675;-64
2021/12/09 00:32:42;;;;;;;18.93;14.37;;;2.90;99.90;;;3.66;100.00;96575.84;5223029;28;20215;-63
2021/12/09 00:35:18;;;;;;;21.40;13.93;;;2.90;99.90;;;3.68;100.00;96571.75;5226833;28;20582;-62
2021/12/09 00:37:59;;;;;;;14.43;12.50;;;2.90;99.90;;;3.69;100.00;96581.09;5206434;28;20211;-64
2021/12/09 00:40:33;;;;;;;14.43;12.27;;;2.80;99.90;;;3.67;100.00;96586.06;5214057;28;20189;-63
2021/12/09 00:43:07;;;;;;;13.07;11.47;;;2.80;99.90;;;3.64;100.00;96585.88;5226231;28;20199;-64
2021/12/09 00:45:41;;;;;;;14.63;11.47;;;2.80;99.90;;;3.60;100.00;96578.84;5225638;28;20242;-63
2021/12/09 00:48:14;;;;;;;14.80;11.30;;;2.80;99.90;;;3.60;100.00;96579.72;5227496;28;20199;-63
2021/12/09 00:50:48;;;;;;;12.50;10.90;;;2.90;99.90;;;3.57;100.00;96574.47;5218338;28;20202;-62
2021/12/09 00:53:21;;;;;;;16.47;12.00;;;2.80;99.90;;;3.54;100.00;96578.47;5225442;28;20201;-64
2021/12/09 00:55:56;;;;;;;11.73;10.57;;;2.80;99.90;;;3.51;100.00;96576.63;5225832;28;20231;-64
2021/12/09 00:58:29;;;;;;;11.53;10.33;;;2.80;99.90;;;3.47;100.00;96576.34;5225486;28;20203;-63
2021/12/09 01:01:05;;;;;;;12.70;11.37;;;2.80;99.90;;;3.39;100.00;96576.72;5225333;28;20295;-61
2021/12/09 01:03:41;;;;;;;13.40;10.70;;;2.70;99.90;;;3.43;100.00;96584.50;5224865;28;20212;-63
2021/12/09 01:06:14;;;;;;;13.83;11.13;;;2.70;99.90;;;3.44;100.00;96587.13;5225757;28;20624;-63
2021/12/09 01:08:47;;;;;;;15.70;12.33;;;2.80;99.90;;;3.46;100.00;96595.66;5225560;28;20656;-65
2021/12/09 01:11:21;;;;;;;12.10;10.77;;;2.80;99.90;;;3.43;100.00;96600.53;5224840;28;20200;-63
2021/12/09 01:13:55;;;;;;;12.17;10.40;;;2.80;99.90;;;3.48;100.00;96603.34;5232962;28;20653;-64
2021/12/09 01:16:28;;;;;;;13.93;11.50;;;2.80;99.90;;;3.50;100.00;96604.34;5224092;28;20231;-63
2021/12/09 01:19:01;;;;;;;11.83;10.57;;;2.80;99.90;;;3.45;100.00;96598.97;5223903;28;20219;-64
2021/12/09 01:21:34;;;;;;;11.07;9.80;;;2.70;99.90;;;3.45;100.00;96604.03;5224237;28;20201;-63
2021/12/09 01:24:07;;;;;;;11.40;10.17;;;2.70;99.90;;;3.43;100.00;96610.63;5231802;28;20220;-64
2021/12/09 01:26:42;;;;;;;12.23;11.13;;;2.80;99.90;;;3.51;100.00;96614.50;5228366;28;20226;-64
2021/12/09 01:29:19;;;;;;;12.70;11.37;;;2.70;99.90;;;3.38;100.00;96601.91;5241257;28;20195;-64
2021/12/09 01:31:58;;;;;;;11.50;10.47;;;2.70;99.90;;;3.33;100.00;96611.69;5227313;28;20203;-64
2021/12/09 01:34:32;;;;;;;12.40;10.03;;;2.70;99.90;;;3.42;100.00;96620.66;5234148;28;20218;-62
2021/12/09 01:37:06;;;;;;;13.07;11.67;;;2.70;99.90;;;3.45;100.00;96614.13;5226110;28;20197;-64
2021/12/09 01:39:39;;;;;;;13.07;11.10;;;2.70;99.90;;;3.38;100.00;96597.72;5225571;28;20238;-64
2021/12/09 01:42:14;;;;;;;11.17;10.17;;;2.70;99.90;;;3.40;100.00;96605.38;5233058;28;20203;-61
2021/12/09 01:44:47;;;;;;;11.77;10.53;;;2.80;99.90;;;3.49;100.00;96615.19;5220525;28;20235;-64
2021/12/09 01:47:21;;;;;;;12.23;10.87;;;2.80;99.90;;;3.52;100.00;96608.72;5224234;28;20293;-63
2021/12/09 01:49:55;;;;;;;13.53;10.93;;;2.90;99.90;;;3.56;100.00;96603.06;5228377;28;20212;-64
2021/12/09 01:52:29;;;;;;;13.63;12.23;;;2.90;99.90;;;3.55;100.00;96598.78;5225928;28;20193;-64
2021/12/09 01:55:03;;;;;;;13.33;12.03;;;2.90;99.90;;;3.57;100.00;96588.78;5231874;28;20298;-64
2021/12/09 01:57:38;;;;;;;14.37;12.77;;;2.90;99.90;;;3.58;100.00;96590.53;5224703;28;20304;-64
2021/12/09 02:00:17;;;;;;;15.27;12.93;;;2.90;99.90;;;3.61;100.00;96595.78;5225393;28;20210;-63
2021/12/09 02:02:51;;;;;;;14.53;12.93;;;2.90;99.90;;;3.61;100.00;96599.19;5227558;28;20201;-64
2021/12/09 02:05:30;;;;;;;17.53;13.33;;;2.90;99.90;;;3.60;100.00;96610.03;5226767;28;20225;-64
2021/12/09 02:08:04;;;;;;;15.27;13.30;;;2.90;99.90;;;3.61;100.00;96616.00;5225162;28;20201;-64
2021/12/09 02:10:37;;;;;;;17.17;14.57;;;2.90;99.90;;;3.60;100.00;96621.81;5222912;28;20201;-63
2021/12/09 02:13:12;;;;;;;15.07;12.83;;;2.80;99.90;;;3.58;100.00;96630.97;5234480;28;20292;-63
2021/12/09 02:15:46;;;;;;;18.77;14.40;;;2.90;99.90;;;3.59;100.00;96638.63;5224651;28;20232;-64
2021/12/09 02:18:21;;;;;;;21.77;17.87;;;2.90;99.90;;;3.55;100.00;96630.75;5231649;28;20659;-63
2021/12/09 02:21:08;;;;;;;18.53;15.83;;;2.90;99.90;;;3.49;100.00;96631.25;5224334;28;20256;-63
2021/12/09 02:23:43;;;;;;;21.07;15.97;;;2.80;99.90;;;3.44;100.00;96642.69;5224962;28;20192;-63
2021/12/09 02:26:19;;;;;;;26.33;17.17;;;2.80;99.90;;;3.39;100.00;96647.44;5229649;28;20234;-63
2021/12/09 02:28:55;;;;;;;17.03;15.13;;;2.70;99.90;;;3.43;100.00;96635.88;5236151;28;20188;-64
2021/12/09 02:31:29;;;;;;;23.83;16.90;;;2.80;99.90;;;3.46;100.00;96650.34;5229628;28;20212;-63
2021/12/09 02:34:04;;;;;;;19.43;15.83;;;2.80;99.90;;;3.44;100.00;96655.31;5233156;28;20208;-63
2021/12/09 02:36:41;;;;;;;16.73;14.93;;;2.80;99.90;;;3.43;100.00;96651.03;5226783;28;20582;-64
2021/12/09 02:39:15;;;;;;;18.47;16.47;;;2.80;99.90;;;3.42;100.00;96630.75;5226639;28;20223;-64
2021/12/09 02:41:50;;;;;;;21.10;16.80;;;2.80;99.90;;;3.45;100.00;96644.44;5225804;28;20295;-65
2021/12/09 02:44:24;;;;;;;19.13;15.80;;;2.80;99.90;;;3.48;100.00;96646.28;5239026;28;20206;-65
2021/12/09 02:46:57;;;;;;;27.03;18.37;;;2.80;99.90;;;3.44;100.00;96650.28;5233215;28;20200;-65
2021/12/09 02:49:33;;;;;;;23.67;16.27;;;2.80;99.90;;;3.43;100.00;96651.03;5229953;28;20651;-65
2021/12/09 02:52:08;;;;;;;15.27;12.90;;;2.80;99.90;;;3.59;100.00;96636.09;5232447;28;20652;-65
2021/12/09 02:54:41;;;;;;;13.93;11.40;;;2.70;99.90;;;3.56;100.00;96638.41;5226601;28;20217;-64
2021/12/09 02:57:15;;;;;;;11.53;10.33;;;2.80;99.90;;;3.56;100.00;96647.66;5226823;28;20204;-64
2021/12/09 02:59:48;;;;;;;11.80;10.60;;;2.70;99.90;;;3.58;100.00;96656.22;5228268;28;20591;-64
2021/12/09 03:02:21;;;;;;;12.10;10.33;;;2.70;99.90;;;3.54;100.00;96650.06;5243238;22;20727;-63
2021/12/09 03:04:58;;;;;;;12.90;10.00;;;2.70;99.90;;;3.48;100.00;96659.78;5222697;28;20595;-63
2021/12/09 03:07:38;;;;;;;15.27;10.93;;;2.70;99.90;;;3.45;100.00;96662.13;5222649;28;20220;-62
2021/12/09 03:10:19;;;;;;;15.10;11.33;;;2.70;99.90;;;3.45;100.00;96659.59;5222352;28;20212;-63
2021/12/09 03:12:56;;;;;;;10.07;8.83;;;2.70;99.90;;;3.54;100.00;96652.59;5225333;28;20228;-63
2021/12/09 03:15:29;;;;;;;8.43;7.57;;;2.60;99.90;;;3.48;100.00;96648.81;5226435;28;20215;-63
2021/12/09 03:18:03;;;;;;;8.03;7.33;;;2.60;99.90;;;3.47;100.00;96640.38;5223022;28;20209;-63
2021/12/09 03:20:36;;;;;;;8.60;6.90;;;2.60;99.90;;;3.44;100.00;96657.84;5226592;28;20592;-63
2021/12/09 03:23:10;;;;;;;8.40;7.40;;;2.50;99.90;;;3.47;100.00;96665.63;5227690;28;20208;-63
2021/12/09 03:25:43;;;;;;;8.30;6.40;;;2.50;99.90;;;3.48;100.00;96656.38;5227298;28;20230;-63
2021/12/09 03:28:18;;;;;;;7.30;6.60;;;2.50;99.90;;;3.42;100.00;96656.00;5226375;28;20207;-63
2021/12/09 03:30:51;;;;;;;8.37;7.00;;;2.50;99.90;;;3.39;100.00;96656.66;5232751;28;20199;-63
2021/12/09 03:33:24;;;;;;;7.53;6.77;;;2.50;99.90;;;3.32;100.00;96652.88;5223865;28;20659;-62
2021/12/09 03:35:59;;;;;;;7.30;6.43;;;2.50;99.90;;;3.34;100.00;96658.03;5218892;28;20690;-62
2021/12/09 03:38:36;;;;;;;7.37;6.67;;;2.40;99.90;;;3.30;100.00;96663.66;5226925;28;20209;-63
2021/12/09 03:41:10;;;;;;;7.00;6.23;;;2.40;99.90;;;3.24;100.00;96674.22;5226404;28;20216;-65
2021/12/09 03:43:43;;;;;;;6.87;6.17;;;2.30;99.90;;;3.09;100.00;96674.09;5226184;28;20203;-65
2021/12/09 03:46:18;;;;;;;8.00;7.03;;;2.20;99.90;;;3.03;100.00;96673.66;5226431;28;20219;-66
2021/12/09 03:48:51;;;;;;;7.60;6.90;;;2.20;99.90;;;3.01;100.00;96671.84;5226332;28;20203;-66
2021/12/09 03:51:24;;;;;;;7.90;7.20;;;2.10;99.90;;;3.01;100.00;96675.25;5225947;28;20227;-65
2021/12/09 03:53:59;;;;;;;7.20;6.50;;;2.10;99.90;;;2.97;100.00;96683.38;5226948;28;20646;-64
2021/12/09 03:56:32;;;;;;;9.50;7.67;;;2.10;99.90;;;2.94;100.00;96683.16;5223997;28;20217;-64
2021/12/09 03:59:07;;;;;;;9.77;8.70;;;2.10;99.90;;;2.97;100.00;96683.38;5227068;28;20202;-64
2021/12/09 04:01:43;;;;;;;10.63;9.53;;;2.10;99.90;;;2.98;100.00;96692.69;5224868;28;20227;-64
2021/12/09 04:04:17;;;;;;;9.30;7.60;;;2.10;99.90;;;3.02;100.00;96697.16;5225748;28;20648;-64
2021/12/09 04:06:50;;;;;;;8.60;7.80;;;2.10;99.90;;;2.99;100.00;96696.97;5224272;28;20316;-63
2021/12/09 04:09:25;;;;;;;7.27;6.50;;;2.20;99.90;;;2.97;100.00;96698.50;5224352;28;20199;-63
2021/12/09 04:11:59;;;;;;;7.87;6.63;;;2.20;99.90;;;2.96;100.00;96695.91;5221520;28;20223;-63
2021/12/09 04:14:32;;;;;;;8.17;7.20;;;2.10;99.90;;;2.95;100.00;96702.59;5225904;28;20581;-63
2021/12/09 04:17:05;;;;;;;8.13;7.33;;;2.20;99.90;;;2.88;100.00;96713.91;5224471;28;20200;-63
2021/12/09 04:19:46;;;;;;;7.70;7.10;;;2.20;99.90;;;2.86;100.00;96695.28;5225555;28;20303;-62
2021/12/09 04:22:21;;;;;;;7.40;6.70;;;2.20;99.90;;;2.90;100.00;96696.34;5225333;28;20974;-62
2021/12/09 04:24:55;;;;;;;7.27;6.50;;;2.20;99.90;;;2.93;100.00;96697.44;5226298;28;20213;-63
2021/12/09 04:27:28;;;;;;;7.93;7.23;;;2.20;99.90;;;2.96;100.00;96701.81;5226695;28;20709;-62
2021/12/09 04:30:01;;;;;;;10.97;7.93;;;2.30;99.90;;;3.01;100.00;96703.00;5226969;28;20219;-63
2021/12/09 04:32:35;;;;;;;9.30;8.23;;;2.30;99.90;;;2.97;100.00;96702.69;5217764;28;20590;-62
2021/12/09 04:35:11;;;;;;;10.30;8.63;;;2.30;99.90;;;2.97;100.00;96702.69;5225243;28;20711;-62
2021/12/09 04:37:44;;;;;;;10.97;9.23;;;2.30;99.90;;;2.87;100.00;96703.72;5226448;28;20541;-62
2021/12/09 04:40:19;;;;;;;10.97;8.80;;;2.20;99.90;;;2.93;100.00;96711.69;5225654;28;20200;-63
2021/12/09 04:42:52;;;;;;;10.90;9.27;;;2.30;99.90;;;2.95;100.00;96722.78;5225518;28;20232;-63
2021/12/09 04:45:25;;;;;;;9.63;8.63;;;2.30;99.90;;;3.00;100.00;96723.94;5228232;28;20543;-62
2021/12/09 04:47:58;;;;;;;9.63;8.50;;;2.30;99.90;;;3.03;100.00;96729.19;5224722;28;20209;-62
2021/12/09 04:50:32;;;;;;;10.70;8.23;;;2.30;99.90;;;3.03;100.00;96728.31;5224990;28;20215;-62
2021/12/09 04:53:06;;;;;;;8.70;7.67;;;2.30;99.90;;;3.04;100.00;96741.06;5226198;28;20242;-63
2021/12/09 04:55:41;;;;;;;11.77;8.40;;;2.30;99.90;;;3.06;100.00;96738.63;5225424;28;20877;-63
2021/12/09 04:58:14;;;;;;;9.60;8.60;;;2.30;99.90;;;3.09;100.00;96738.84;5226221;28;20291;-63
2021/12/09 05:00:48;;;;;;;9.67;8.77;;;2.40;99.90;;;3.09;100.00;96741.34;5223457;28;20204;-63
2021/12/09 05:03:21;;;;;;;12.20;9.50;;;2.40;99.90;;;3.06;100.00;96743.66;5223662;28;20295;-64
2021/12/09 05:05:58;;;;;;;11.63;9.00;;;2.40;99.90;;;3.13;100.00;96746.72;5219068;28;20224;-63
2021/12/09 05:08:33;;;;;;;10.07;9.07;;;2.40;99.90;;;3.17;100.00;96748.66;5222879;28;20206;-63
2021/12/09 05:11:14;;;;;;;12.13;9.57;;;2.50;99.90;;;3.17;100.00;96753.72;5225483;28;20277;-61
2021/12/09 05:13:47;;;;;;;11.53;8.83;;;2.50;99.90;;;3.19;100.00;96753.84;5221644;28;20201;-62
2021/12/09 05:16:20;;;;;;;15.13;9.27;;;2.40;99.90;;;3.21;100.00;96761.53;5224158;28;20198;-62
2021/12/09 05:18:58;;;;;;;10.43;8.87;;;2.50;99.90;;;3.20;100.00;96770.72;5227537;28;20278;-63
2021/12/09 05:21:37;;;;;;;12.53;10.43;;;2.50;99.90;;;3.24;100.00;96775.22;5225987;28;20772;-63
2021/12/09 05:24:13;;;;;;;15.23;11.03;;;2.50;99.90;;;3.26;100.00;96778.72;5225538;28;20198;-63
2021/12/09 05:26:52;;;;;;;16.07;11.13;;;2.50;99.90;;;3.24;100.00;96792.03;5224836;28;20234;-63
2021/12/09 05:29:30;;;;;;;11.03;9.37;;;2.60;99.90;;;3.26;100.00;96798.03;5225163;28;20196;-63
2021/12/09 05:32:10;;;;;;;13.70;10.47;;;2.60;99.90;;;3.29;100.00;96808.34;5224181;28;20235;-63
2021/12/09 05:34:47;;;;;;;14.23;10.93;;;2.60;99.90;;;3.36;100.00;96818.09;5224303;28;20193;-63
2021/12/09 05:37:22;;;;;;;13.20;10.77;;;2.60;99.90;;;3.33;100.00;96812.84;5218618;28;20205;-64
2021/12/09 05:39:58;;;;;;;11.40;9.90;;;2.60;99.90;;;3.34;100.00;96801.94;5222525;28;20546;-63
2021/12/09 05:42:37;;;;;;;12.50;11.20;;;2.60;99.90;;;3.34;100.00;96797.78;5222264;28;20234;-63
2021/12/09 05:45:10;;;;;;;15.93;11.43;;;2.60;99.90;;;3.38;100.00;96801.41;5226937;28;20208;-63
2021/12/09 05:47:44;;;;;;;14.00;11.60;;;2.60;99.90;;;3.38;100.00;96799.75;5230277;28;20234;-63
2021/12/09 05:50:17;;;;;;;18.83;12.13;;;2.70;99.90;;;3.41;100.00;96798.22;5222148;28;20629;-63
2021/12/09 05:52:50;;;;;;;22.13;14.83;;;2.70;99.90;;;3.46;100.00;96802.75;5223579;28;20228;-63
2021/12/09 05:55:23;;;;;;;24.20;15.97;;;2.70;99.90;;;3.56;100.00;96807.66;5221472;28;20299;-63
2021/12/09 05:57:58;;;;;;;26.80;15.60;;;2.90;99.90;;;3.65;100.00;96809.06;5224866;28;20205;-62
2021/12/09 06:00:31;;;;;;;26.17;15.50;;;2.90;99.90;;;3.66;100.00;96811.66;5224600;28;20225;-63
2021/12/09 06:03:04;;;;;;;21.40;15.33;;;2.90;99.90;;;3.64;100.00;96817.44;5224120;28;20238;-63
2021/12/09 06:05:38;;;;;;;24.43;14.87;;;2.90;99.90;;;3.63;100.00;96803.88;5222451;28;20211;-63
2021/12/09 06:08:11;;;;;;;23.53;14.93;;;2.90;99.90;;;3.65;100.00;96814.13;5219065;28;20224;-63
2021/12/09 06:10:45;;;;;;;23.23;16.10;;;2.90;99.90;;;3.75;100.00;96822.41;5221305;28;20197;-63
2021/12/09 06:13:21;;;;;;;17.57;14.10;;;2.90;99.90;;;3.70;100.00;96817.81;5221034;28;20291;-63
2021/12/09 06:15:55;;;;;;;22.37;14.33;;;2.90;99.90;;;3.70;100.00;96818.69;5223477;28;20208;-62
2021/12/09 06:18:28;;;;;;;20.93;14.07;;;3.00;99.90;;;3.72;100.00;96816.25;5223888;28;20200;-63
2021/12/09 06:21:01;;;;;;;24.20;15.37;;;3.00;99.90;;;3.72;100.00;96817.16;5225708;28;20221;-63
2021/12/09 06:23:34;;;;;;;22.47;15.07;;;3.00;99.90;;;3.74;100.00;96819.78;5228541;28;20200;-63
2021/12/09 06:26:07;;;;;;;25.50;15.87;;;3.10;99.90;;;3.75;100.00;96809.78;5229460;28;20209;-63
2021/12/09 06:28:42;;;;;;;18.10;14.20;;;3.10;99.90;;;3.77;100.00;96817.44;5227818;28;20216;-63
2021/12/09 06:31:16;;;;;;;19.50;13.80;;;3.10;99.90;;;3.79;100.00;96814.25;5229085;28;20222;-63
2021/12/09 06:33:51;;;;;;;23.50;14.47;;;3.10;99.90;;;3.79;100.00;96818.44;5236554;28;20209;-62
2021/12/09 06:36:24;;;;;;;17.73;13.37;;;3.00;99.90;;;3.77;100.00;96823.38;5226465;28;20197;-63
2021/12/09 06:38:57;;;;;;;23.17;13.80;;;3.00;99.90;;;3.79;100.00;96823.47;5223938;28;20205;-63
2021/12/09 06:41:30;;;;;;;19.50;13.27;;;3.00;99.90;;;3.75;100.00;96829.09;5223958;28;20227;-63
2021/12/09 06:44:05;;;;;;;22.37;14.87;;;3.00;99.90;;;3.75;100.00;96827.47;5220340;28;20203;-63
2021/12/09 06:46:39;;;;;;;16.80;13.03;;;3.00;99.90;;;3.76;100.00;96831.72;5225803;28;20209;-62
2021/12/09 06:49:12;;;;;;;16.43;12.63;;;3.00;99.90;;;3.79;100.00;96826.00;5226455;28;20215;-63
2021/12/09 06:51:45;;;;;;;18.90;14.27;;;3.00;99.90;;;3.77;100.00;96830.94;5224954;28;20233;-63
2021/12/09 06:54:18;;;;;;;15.70;13.43;;;3.00;99.90;;;3.75;100.00;96834.13;5223643;28;20676;-63
2021/12/09 06:56:51;;;;;;;19.70;13.93;;;3.00;99.90;;;3.73;100.00;96839.13;5224970;28;20280;-63
2021/12/09 06:59:25;;;;;;;14.50;12.40;;;3.00;99.90;;;3.71;100.00;96838.13;5227611;28;20204;-63
2021/12/09 07:01:59;;;;;;;15.47;13.70;;;3.00;99.90;;;3.71;100.00;96834.72;5222174;28;20735;-63
2021/12/09 07:04:33;;;;;;;15.00;12.57;;;2.90;99.90;;;3.69;100.00;96836.25;5228000;28;20609;-63
2021/12/09 07:07:06;;;;;;;18.53;12.17;;;2.90;99.90;;;3.69;100.00;96846.38;5222455;28;20232;-63
2021/12/09 07:09:39;;;;;;;19.57;12.90;;;2.90;99.90;;;3.69;100.00;96841.31;5220054;28;20193;-63
2021/12/09 07:12:13;;;;;;;19.30;12.53;;;2.90;99.90;;;3.67;100.00;96845.41;5225772;28;20225;-65
2021/12/09 07:14:47;;;;;;;13.73;12.30;;;2.90;99.90;;;3.66;100.00;96843.66;5224537;28;20584;-63
2021/12/09 07:17:21;;;;;;;16.37;12.83;;;2.90;99.90;;;3.65;100.00;96845.31;5220642;28;20664;-63
2021/12/09 07:19:54;;;;;;;21.63;16.30;;;2.90;99.90;;;3.63;100.00;96854.41;5220229;28;20200;-64
2021/12/09 07:22:27;;;;;;;17.90;13.77;;;2.80;99.90;;;3.63;100.00;96846.84;5225596;28;20232;-62
2021/12/09 07:25:00;;;;;;;19.83;14.87;;;2.80;99.90;;;3.61;100.00;96845.88;5226554;28;20585;-63
2021/12/09 07:27:33;;;;;;;18.53;13.27;;;2.80;99.90;;;3.59;100.00;96848.28;5226666;28;20225;-63
2021/12/09 07:30:11;;;;;;;16.73;13.50;;;2.80;99.90;;;3.58;100.00;96854.13;5227875;28;20203;-63
2021/12/09 07:32:45;;;;;;;18.57;14.23;;;2.80;99.90;;;3.59;100.00;96855.00;5224374;28;20636;-63
2021/12/09 07:35:18;;;;;;;31.13;18.80;;;2.80;99.90;;;3.57;100.00;96857.41;5227393;28;20222;-63
2021/12/09 07:37:51;;;;;;;26.67;17.03;;;2.80;99.90;;;3.59;100.00;96863.44;5224190;28;20207;-63
2021/12/09 07:40:25;;;;;;;23.60;17.67;;;2.80;99.90;;;3.59;100.00;96865.97;5224752;28;20220;-63
2021/12/09 07:42:59;;;;;;;24.27;17.53;;;2.80;99.90;;;3.56;100.00;96864.91;5222626;28;20272;-63
2021/12/09 07:45:34;;;;;;;19.90;15.77;;;2.80;99.90;;;3.57;100.00;96870.03;5216507;28;20198;-63
2021/12/09 07:48:07;;;;;;;22.27;14.87;;;2.80;99.90;;;3.58;100.00;96864.25;5225387;28;20248;-63
2021/12/09 07:50:41;;;;;;;19.17;14.67;;;2.80;99.90;;;3.55;100.00;96874.13;5221150;28;20205;-62
2021/12/09 07:53:17;;;;;;;30.33;16.03;;;2.80;99.90;;;3.52;100.00;96870.50;5216531;28;20690;-63
2021/12/09 07:55:50;;;;;;;19.87;13.50;;;2.70;99.90;;;3.53;100.00;96875.66;5217382;28;20201;-62
2021/12/09 07:58:24;;;;;;;20.27;14.03;;;2.80;99.90;;;3.55;100.00;96874.13;5226873;28;20288;-62
2021/12/09 08:00:58;;;;;;;20.57;13.20;;;2.80;99.90;;;3.57;100.00;96875.09;5222909;28;20247;-62
2021/12/09 08:03:33;;;;;;;18.60;13.80;;;2.80;99.90;;;3.61;100.00;96878.72;5224121;28;20299;-62
2021/12/09 08:06:06;;;;;;;12.93;11.53;;;2.90;99.90;;;3.65;100.00;96890.78;5225204;28;20659;-63
2021/12/09 08:08:39;;;;;;;14.60;12.53;;;2.90;99.90;;;3.68;100.00;96885.94;5226776;28;20271;-62
2021/12/09 08:11:13;;;;;;;16.87;12.77;;;2.90;99.90;;;3.70;100.00;96886.06;5225974;28;20248;-61
2021/12/09 08:13:46;;;;;;;15.23;12.50;;;2.90;99.90;;;3.73;100.00;96888.78;5225098;28;20203;-63
2021/12/09 08:16:21;;;;;;;18.30;13.33;;;2.90;99.90;;;3.73;100.00;96884.59;5225523;28;20201;-63
2021/12/09 08:18:55;;;;;;;24.90;16.40;;;2.90;99.90;;;3.79;100.00;96894.25;5223807;28;20196;-62
2021/12/09 08:21:29;;;;;;;27.97;19.37;;;3.00;99.90;;;3.82;100.00;96894.44;5225045;28;20700;-62
2021/12/09 08:24:03;;;;;;;37.23;24.80;;;3.00;99.90;;;3.81;100.00;96896.09;5220443;28;20201;-62
2021/12/09 08:26:37;;;;;;;39.57;26.80;;;3.00;99.90;;;3.79;100.00;96896.78;5222560;28;20207;-62
2021/12/09 08:29:10;;;;;;;89.07;56.97;;;3.00;99.90;;;3.75;100.00;96897.31;5218548;28;20217;-62
2021/12/09 08:31:45;;;;;;;58.20;39.63;;;3.00;99.90;;;3.81;100.00;96903.69;5224756;28;20269;-62
2021/12/09 08:34:21;;;;;;;43.47;32.20;;;3.10;99.90;;;3.86;100.00;96903.97;5227488;28;20675;-63
2021/12/09 08:37:00;;;;;;;36.17;24.67;;;3.00;99.90;;;3.88;100.00;96909.16;5219934;28;20206;-62
2021/12/09 08:39:33;;;;;;;27.33;20.17;;;3.10;99.90;;;3.89;100.00;96911.75;5221684;28;20199;-63
2021/12/09 08:42:07;;;;;;;28.63;19.93;;;3.10;99.90;;;3.91;100.00;96916.94;5225946;28;20575;-63
2021/12/09 08:44:40;;;;;;;20.90;16.60;;;3.10;99.90;;;3.93;100.00;96913.72;5226060;28;20379;-62
2021/12/09 08:47:14;;;;;;;26.33;16.97;;;3.10;99.90;;;3.95;100.00;96922.31;5223496;28;20201;-62
2021/12/09 08:49:48;;;;;;;17.97;15.33;;;3.10;99.90;;;4.01;100.00;96920.19;5224014;28;20217;-62
2021/12/09 08:52:21;;;;;;;28.03;17.27;;;3.20;99.90;;;4.03;100.00;96925.31;5223739;28;20228;-62
2021/12/09 08:54:54;;;;;;;28.20;18.93;;;3.20;99.90;;;4.04;100.00;96922.91;5223025;28;20192;-62
2021/12/09 08:57:31;;;;;;;21.43;16.53;;;3.20;99.90;;;4.09;100.00;96920.66;5227843;28;20251;-63
2021/12/09 09:00:09;;;;;;;22.80;17.97;;;3.20;99.90;;;4.10;100.00;96921.56;5216460;28;20201;-63
2021/12/09 09:02:46;;;;;;;24.77;19.17;;;3.20;99.90;;;4.12;100.00;96930.13;5225505;28;20594;-62
2021/12/09 09:05:20;;;;;;;23.17;18.13;;;3.20;99.90;;;4.14;100.00;96933.63;5224301;28;20243;-62
2021/12/09 09:07:53;;;;;;;32.03;19.37;;;3.30;99.90;;;4.17;100.00;96934.69;5224618;28;20695;-62
2021/12/09 09:10:30;;;;;;;29.07;17.43;;;3.30;99.90;;;4.16;100.00;96932.97;5224173;28;20219;-63
2021/12/09 09:13:04;;;;;;;24.73;17.73;;;3.30;99.90;;;4.18;100.00;96944.06;5223607;28;20312;-63
2021/12/09 09:15:39;;;;;;;20.77;16.80;;;3.30;99.90;;;4.24;100.00;96941.06;5224430;28;20193;-62
2021/12/09 09:18:13;;;;;;;22.63;16.43;;;3.30;99.90;;;4.35;100.00;96941.75;5212458;28;20199;-63
2021/12/09 09:20:47;;;;;;;26.27;16.30;;;3.30;99.90;;;4.36;100.00;96944.38;5225158;28;20644;-62
2021/12/09 09:23:22;;;;;;;20.83;16.70;;;3.30;99.90;;;4.39;100.00;96946.25;5224142;28;20227;-63
2021/12/09 09:25:56;;;;;;;22.43;15.93;;;3.40;99.90;;;4.45;100.00;96939.94;5224931;28;20198;-62
2021/12/09 09:28:32;;;;;;;21.27;15.73;;;3.40;99.90;;;4.49;100.00;96944.44;5224251;28;20279;-62
2021/12/09 09:31:05;;;;;;;24.00;16.43;;;3.40;99.90;;;4.54;100.00;96947.25;5223619;28;20236;-62
2021/12/09 09:33:39;;;;;;;22.60;17.07;;;3.40;99.90;;;4.62;100.00;96952.81;5221833;28;20193;-63
2021/12/09 09:36:13;;;;;;;19.07;15.53;;;3.50;99.90;;;4.64;100.00;96954.66;5224865;28;20670;-62
2021/12/09 09:38:47;;;;;;;24.27;16.30;;;3.60;99.90;;;4.67;100.00;96957.41;5216090;28;20227;-63
2021/12/09 09:41:21;;;;;;;25.23;15.80;;;3.60;99.90;;;4.65;100.00;96960.59;5223485;28;20235;-62
2021/12/09 09:43:59;;;;;;;17.60;14.03;;;3.60;99.90;;;4.70;100.00;96955.06;5223675;28;20203;-62
2021/12/09 09:46:33;;;;;;;18.80;13.63;;;3.60;99.90;;;4.74;100.00;96954.47;5223653;28;20223;-62
2021/12/09 09:49:08;;;;;;;15.10;13.50;;;3.60;99.90;;;4.88;100.00;96949.41;5223892;28;20220;-63
2021/12/09 09:51:43;;;;;;;19.93;12.73;;;3.60;99.90;;;4.69;100.00;96962.53;5224517;28;20250;-63
2021/12/09 09:54:16;;;;;;;17.63;13.37;;;3.60;99.90;;;4.68;100.00;96961.66;5222048;28;20205;-62
2021/12/09 09:56:49;;;;;;;18.43;13.67;;;3.60;99.90;;;4.72;100.00;96966.16;5229114;28;20205;-62
2021/12/09 09:59:22;;;;;;;15.47;13.33;;;3.60;99.90;;;4.81;100.00;96962.44;5228135;28;20293;-62
2021/12/09 10:01:56;;;;;;;17.53;13.50;;;3.70;99.90;;;4.77;100.00;96961.38;5228433;28;20814;-62
2021/12/09 10:04:37;;;;;;;14.83;13.33;;;3.70;99.90;;;4.84;100.00;96960.16;5228924;28;20243;-62
2021/12/09 10:07:17;;;;;;;17.40;13.57;;;3.70;99.90;;;4.85;100.00;96955.16;5222682;28;20209;-62
2021/12/09 10:09:50;;;;;;;19.90;13.07;;;3.80;99.90;;;4.95;100.00;96956.63;5222469;28;20223;-62
2021/12/09 10:12:23;;;;;;;17.40;12.80;;;3.90;99.90;;;5.08;100.00;96958.28;5232773;28;20228;-62
2021/12/09 10:14:56;;;;;;;20.33;13.93;;;3.80;99.90;;;5.12;100.00;96955.16;5228310;28;20201;-62
2021/12/09 10:17:29;;;;;;;13.60;11.97;;;3.90;99.90;;;5.24;100.00;96950.88;5227825;28;20207;-62
2021/12/09 10:20:15;;;;;;;17.27;12.03;;;4.00;99.90;;;5.27;100.00;96965.41;5228709;28;20189;-62
2021/12/09 10:22:48;;;;;;;16.20;12.43;;;4.00;99.90;;;5.26;100.00;96967.03;5227997;28;20220;-62
2021/12/09 10:25:24;;;;;;;15.27;11.63;;;4.00;99.90;;;5.30;100.00;96969.00;5231852;28;20230;-62
2021/12/09 10:27:59;;;;;;;13.37;12.03;;;4.00;99.90;;;5.34;100.00;96960.78;5226144;28;20742;-63
2021/12/09 10:30:39;;;;;;;15.30;12.60;;;4.10;99.90;;;5.30;100.00;96965.59;5226474;28;20303;-62
2021/12/09 10:33:18;;;;;;;14.87;11.60;;;4.20;99.90;;;5.41;100.00;96965.47;5220430;28;20627;-60
2021/12/09 10:35:53;;;;;;;13.73;10.50;;;4.10;99.90;;;5.37;100.00;96960.97;5208219;28;20373;-62
2021/12/09 10:38:29;;;;;;;13.63;11.00;;;4.10;99.90;;;5.40;100.00;96967.91;5227398;28;20204;-62
2021/12/09 10:41:02;;;;;;;12.13;10.93;;;4.00;99.90;;;5.34;100.00;96958.25;5227109;28;20315;-62
2021/12/09 10:43:35;;;;;;;12.87;10.87;;;4.10;99.90;;;5.29;100.00;96953.69;5219241;28;20208;-62
2021/12/09 10:46:12;;;;;;;13.23;11.33;;;4.00;99.90;;;5.30;100.00;96953.78;5227309;28;20224;-62